Garrisonville, Virginia
Current Conditions -  °F | °C
As of 2:15 AM on Thursday 23 Oct 2014 (Local Time) from KRMN Reporting Station
Clear Clear  
Wind Chill:   Ceiling: Unl
Heat Index: 10°   Visibility: 10mi
Dew Point:   Wind: 13mph
Humidity: 71%   Direction: 300°WNW
Pressure: 29.97"   Gusts: NA
Location:  38.48°N, 77.43°W
Report Text: KRMN 230615Z AUTO 30011KT 10SM CLR 10/05 A2997 RMK AO2 T00980047
Loading
Personal Weather Stations






























Interactive Weather Map
Tropical Storm Tracking
New forecast layout! Learn more

10-Day Weather Forecast

Advertisements
Track Severe Weather on mobile